EWG67Q EGPH-EDDK
Flight info
| Callsign | EWG67Q |
|---|---|
| Flight time | N/A |
| Altitude | 25000 |
| Route | TLA Y96 OTBUN/N0448F350 DCT ERKIT N110 DOLAS L603 LAMSO DCT PAM L620 SONEB/N0403F230 Z841 GETNI T858 KOPAG KOPAG1B |
| Aircraft | A320/M-SDE3FGHIRWY/LB1 |
Departure
| Time | 2026-04-24 22:19 |
|---|---|
| Airport | Edinburgh Airport (EGPH) |
Arrival
| Time | N/A |
|---|---|
| Airport | Cologne Bonn Airport (EDDK) |
| Time | Latitude | Longitude | Altitude | Speed | Heading |
|---|---|---|---|---|---|
| 2026-04-24 21:05 | 55.94702 | -3.36603 | 90 ft | 0 kts | 89° |
| 2026-04-24 21:50 | 55.94702 | -3.36625 | 112 ft | 4 kts | 89° |
| 2026-04-24 21:50 | 55.94701 | -3.36670 | 113 ft | 2 kts | 89° |
| 2026-04-24 21:50 | 55.94698 | -3.36710 | 112 ft | 4 kts | 54° |
| 2026-04-24 21:51 | 55.94679 | -3.36734 | 112 ft | 4 kts | 5° |
| 2026-04-24 21:51 | 55.94670 | -3.36735 | 112 ft | 0 kts | 359° |
| 2026-04-24 21:55 | 55.94689 | -3.36736 | 114 ft | 7 kts | 359° |
| 2026-04-24 21:55 | 55.94756 | -3.36749 | 115 ft | 9 kts | 334° |
| 2026-04-24 21:55 | 55.94809 | -3.36778 | 116 ft | 7 kts | 359° |
| 2026-04-24 21:56 | 55.94853 | -3.36779 | 116 ft | 6 kts | 358° |
| 2026-04-24 21:56 | 55.94887 | -3.36795 | 112 ft | 4 kts | 333° |
| 2026-04-24 21:56 | 55.94910 | -3.36820 | 115 ft | 3 kts | 326° |
| 2026-04-24 21:56 | 55.94926 | -3.36875 | 116 ft | 8 kts | 271° |
| 2026-04-24 21:57 | 55.94897 | -3.36981 | 115 ft | 10 kts | 239° |
| 2026-04-24 21:57 | 55.94864 | -3.37077 | 113 ft | 8 kts | 238° |
| 2026-04-24 21:57 | 55.94836 | -3.37159 | 115 ft | 8 kts | 238° |
| 2026-04-24 21:57 | 55.94785 | -3.37309 | 113 ft | 20 kts | 238° |
| 2026-04-24 21:58 | 55.94702 | -3.37559 | 112 ft | 27 kts | 239° |
| 2026-04-24 21:58 | 55.94603 | -3.37848 | 112 ft | 28 kts | 238° |
| 2026-04-24 21:58 | 55.94501 | -3.38147 | 112 ft | 29 kts | 239° |
| 2026-04-24 21:58 | 55.94400 | -3.38445 | 112 ft | 21 kts | 238° |
| 2026-04-24 21:59 | 55.94336 | -3.38609 | 114 ft | 15 kts | 217° |
| 2026-04-24 21:59 | 55.94264 | -3.38703 | 114 ft | 8 kts | 237° |
| 2026-04-24 21:59 | 55.94260 | -3.38715 | 113 ft | 0 kts | 239° |
| 2026-04-24 22:17 | 55.94244 | -3.38775 | 113 ft | 12 kts | 255° |
| 2026-04-24 22:17 | 55.94288 | -3.38867 | 114 ft | 10 kts | 329° |
| 2026-04-24 22:18 | 55.94334 | -3.38916 | 115 ft | 6 kts | 329° |
| 2026-04-24 22:18 | 55.94375 | -3.38961 | 114 ft | 10 kts | 329° |
| 2026-04-24 22:18 | 55.94417 | -3.38964 | 114 ft | 4 kts | 44° |
| 2026-04-24 22:18 | 55.94451 | -3.38865 | 114 ft | 30 kts | 59° |
| 2026-04-24 22:19 | 55.94696 | -3.38144 | 112 ft | 102 kts | 59° |
| 2026-04-24 22:19 | 55.95166 | -3.36763 | 124 ft | 154 kts | 59° |
| 2026-04-24 22:19 | 55.95717 | -3.35109 | 752 ft | 155 kts | 59° |
| 2026-04-24 22:19 | 55.96405 | -3.33628 | 1412 ft | 161 kts | 41° |
| 2026-04-24 22:20 | 55.97301 | -3.32190 | 1723 ft | 184 kts | 41° |
| 2026-04-24 22:20 | 55.98309 | -3.30579 | 2021 ft | 206 kts | 41° |
| 2026-04-24 22:20 | 55.99443 | -3.28772 | 2411 ft | 226 kts | 41° |
| 2026-04-24 22:20 | 56.00626 | -3.26867 | 3166 ft | 231 kts | 41° |
| 2026-04-24 22:21 | 56.01827 | -3.24938 | 4009 ft | 233 kts | 41° |
| 2026-04-24 22:21 | 56.03037 | -3.22994 | 4847 ft | 235 kts | 41° |
| 2026-04-24 22:21 | 56.04246 | -3.21007 | 5635 ft | 239 kts | 46° |
| 2026-04-24 22:21 | 56.05044 | -3.18398 | 5935 ft | 244 kts | 79° |
| 2026-04-24 22:22 | 56.04988 | -3.15381 | 5994 ft | 245 kts | 98° |
| 2026-04-24 22:22 | 56.04738 | -3.12362 | 6010 ft | 245 kts | 99° |
| 2026-04-24 22:22 | 56.04214 | -3.09486 | 6005 ft | 244 kts | 119° |
| 2026-04-24 22:22 | 56.03192 | -3.07071 | 6002 ft | 244 kts | 137° |
| 2026-04-24 22:23 | 56.01860 | -3.05182 | 6003 ft | 245 kts | 143° |
| 2026-04-24 22:23 | 56.00508 | -3.03335 | 6003 ft | 245 kts | 143° |
| 2026-04-24 22:23 | 55.99153 | -3.01489 | 6005 ft | 245 kts | 144° |
| 2026-04-24 22:23 | 55.97702 | -2.99900 | 6009 ft | 244 kts | 157° |
| 2026-04-24 22:24 | 55.96060 | -2.99244 | 6009 ft | 243 kts | 182° |
| 2026-04-24 22:24 | 55.94429 | -2.99884 | 6007 ft | 241 kts | 205° |
| 2026-04-24 22:24 | 55.92897 | -3.01123 | 6004 ft | 242 kts | 205° |
| 2026-04-24 22:24 | 55.91279 | -3.02429 | 6004 ft | 266 kts | 205° |
| 2026-04-24 22:25 | 55.89567 | -3.03806 | 6004 ft | 272 kts | 205° |
| 2026-04-24 22:25 | 55.87834 | -3.05195 | 6002 ft | 273 kts | 205° |
| 2026-04-24 22:25 | 55.86102 | -3.06584 | 6004 ft | 273 kts | 205° |
| 2026-04-24 22:25 | 55.84368 | -3.07973 | 6008 ft | 273 kts | 205° |
| 2026-04-24 22:26 | 55.82635 | -3.09361 | 6007 ft | 273 kts | 205° |
| 2026-04-24 22:26 | 55.80901 | -3.10749 | 6005 ft | 273 kts | 205° |
| 2026-04-24 22:26 | 55.79166 | -3.12130 | 6006 ft | 273 kts | 205° |
| 2026-04-24 22:26 | 55.77431 | -3.13508 | 6002 ft | 273 kts | 205° |
| 2026-04-24 22:27 | 55.75697 | -3.14885 | 6003 ft | 273 kts | 205° |
| 2026-04-24 22:27 | 55.73961 | -3.16263 | 6004 ft | 273 kts | 205° |
| 2026-04-24 22:27 | 55.72224 | -3.17640 | 6005 ft | 273 kts | 205° |
| 2026-04-24 22:27 | 55.70488 | -3.19017 | 5998 ft | 273 kts | 205° |
| 2026-04-24 22:28 | 55.68752 | -3.20393 | 5994 ft | 273 kts | 205° |
| 2026-04-24 22:28 | 55.67037 | -3.21752 | 5994 ft | 273 kts | 205° |
| 2026-04-24 22:28 | 55.65296 | -3.23129 | 6000 ft | 273 kts | 205° |
| 2026-04-24 22:28 | 55.63560 | -3.24505 | 6004 ft | 273 kts | 205° |
| 2026-04-24 22:29 | 55.60086 | -3.27250 | 6002 ft | 273 kts | 204° |
| 2026-04-24 22:29 | 55.58348 | -3.28617 | 5997 ft | 273 kts | 204° |
| 2026-04-24 22:29 | 55.56613 | -3.29984 | 6000 ft | 273 kts | 204° |
| 2026-04-24 22:30 | 55.54873 | -3.31337 | 5997 ft | 273 kts | 201° |
| 2026-04-24 22:30 | 55.53010 | -3.31899 | 5998 ft | 274 kts | 176° |
| 2026-04-24 22:30 | 55.51184 | -3.31035 | 6003 ft | 274 kts | 152° |
| 2026-04-24 22:30 | 55.49738 | -3.28832 | 6364 ft | 281 kts | 124° |
| 2026-04-24 22:31 | 55.48928 | -3.25728 | 7261 ft | 281 kts | 103° |
| 2026-04-24 22:31 | 55.48532 | -3.22332 | 8104 ft | 284 kts | 100° |
| 2026-04-24 22:31 | 55.48163 | -3.18883 | 8901 ft | 288 kts | 100° |
| 2026-04-24 22:31 | 55.47795 | -3.15382 | 9722 ft | 292 kts | 100° |
| 2026-04-24 22:32 | 55.47420 | -3.11833 | 10468 ft | 298 kts | 100° |
| 2026-04-24 22:32 | 55.47027 | -3.08127 | 10777 ft | 320 kts | 100° |
| 2026-04-24 22:32 | 55.46600 | -3.04134 | 10974 ft | 343 kts | 100° |
| 2026-04-24 22:32 | 55.46005 | -2.99960 | 11366 ft | 357 kts | 109° |
| 2026-04-24 22:33 | 55.44959 | -2.95962 | 11995 ft | 363 kts | 119° |
| 2026-04-24 22:33 | 55.43720 | -2.92067 | 12690 ft | 366 kts | 119° |
| 2026-04-24 22:33 | 55.42483 | -2.88179 | 13381 ft | 370 kts | 119° |
| 2026-04-24 22:33 | 55.41219 | -2.84208 | 14059 ft | 374 kts | 119° |
| 2026-04-24 22:34 | 55.39939 | -2.80195 | 14665 ft | 378 kts | 119° |
| 2026-04-24 22:34 | 55.38644 | -2.76149 | 15294 ft | 381 kts | 119° |
| 2026-04-24 22:34 | 55.37338 | -2.72085 | 15910 ft | 383 kts | 119° |
| 2026-04-24 22:34 | 55.36021 | -2.67989 | 16522 ft | 386 kts | 119° |
| 2026-04-24 22:35 | 55.34696 | -2.63859 | 17126 ft | 389 kts | 119° |
| 2026-04-24 22:35 | 55.33362 | -2.59705 | 17711 ft | 392 kts | 119° |
| 2026-04-24 22:35 | 55.32015 | -2.55523 | 18314 ft | 395 kts | 120° |
| 2026-04-24 22:35 | 55.30655 | -2.51315 | 18839 ft | 398 kts | 120° |
| 2026-04-24 22:36 | 55.29266 | -2.47094 | 19345 ft | 400 kts | 122° |
| 2026-04-24 22:36 | 55.27568 | -2.43206 | 19806 ft | 403 kts | 133° |
| 2026-04-24 22:36 | 55.25493 | -2.39885 | 20294 ft | 406 kts | 142° |
| 2026-04-24 22:36 | 55.23235 | -2.36903 | 20779 ft | 408 kts | 143° |
| 2026-04-24 22:37 | 55.21728 | -2.34911 | 21095 ft | 410 kts | 142° |
| 2026-04-24 22:37 | 55.18704 | -2.30904 | 21722 ft | 413 kts | 142° |
| 2026-04-24 22:37 | 55.16407 | -2.27854 | 22168 ft | 416 kts | 142° |
| 2026-04-24 22:37 | 55.14091 | -2.24783 | 22627 ft | 419 kts | 142° |
| 2026-04-24 22:38 | 55.11765 | -2.21699 | 23082 ft | 421 kts | 142° |
| 2026-04-24 22:38 | 55.09421 | -2.18595 | 23527 ft | 424 kts | 142° |
| 2026-04-24 22:38 | 55.07858 | -2.16533 | 23810 ft | 426 kts | 142° |
| 2026-04-24 22:38 | 55.05481 | -2.13403 | 24177 ft | 428 kts | 142° |
| 2026-04-24 22:39 | 55.03091 | -2.10265 | 24539 ft | 431 kts | 142° |
| 2026-04-24 22:39 | 55.00688 | -2.07113 | 24885 ft | 433 kts | 142° |
| 2026-04-24 22:39 | 54.97482 | -2.02916 | 25217 ft | 436 kts | 142° |
| 2026-04-24 22:39 | 54.95848 | -2.00784 | 25264 ft | 436 kts | 142° |
| 2026-04-24 22:40 | 54.93418 | -1.97619 | 25272 ft | 436 kts | 142° |
| 2026-04-24 22:40 | 54.90992 | -1.94464 | 25270 ft | 436 kts | 142° |
| 2026-04-24 22:40 | 54.88562 | -1.91303 | 25269 ft | 436 kts | 142° |
| 2026-04-24 22:40 | 54.86137 | -1.88146 | 25271 ft | 435 kts | 142° |
| 2026-04-24 22:41 | 54.83713 | -1.84994 | 25275 ft | 436 kts | 142° |
| 2026-04-24 22:41 | 54.81319 | -1.81889 | 25277 ft | 436 kts | 142° |
| 2026-04-24 22:41 | 54.78884 | -1.78749 | 25273 ft | 436 kts | 142° |
| 2026-04-24 22:41 | 54.76454 | -1.75619 | 25272 ft | 435 kts | 142° |
| 2026-04-24 22:42 | 54.74024 | -1.72491 | 25264 ft | 435 kts | 142° |
| 2026-04-24 22:42 | 54.71598 | -1.69370 | 25263 ft | 435 kts | 142° |
| 2026-04-24 22:42 | 54.69174 | -1.66253 | 25257 ft | 434 kts | 142° |
| 2026-04-24 22:42 | 54.66746 | -1.63134 | 25254 ft | 434 kts | 142° |
| 2026-04-24 22:43 | 54.64323 | -1.60029 | 25257 ft | 433 kts | 142° |
| 2026-04-24 22:43 | 54.61901 | -1.56929 | 25252 ft | 433 kts | 142° |
| 2026-04-24 22:43 | 54.59481 | -1.53839 | 25245 ft | 433 kts | 143° |
| 2026-04-24 22:43 | 54.57062 | -1.50755 | 25244 ft | 432 kts | 143° |
| 2026-04-24 22:44 | 54.54643 | -1.47673 | 25250 ft | 432 kts | 143° |
| 2026-04-24 22:44 | 54.52231 | -1.44600 | 25246 ft | 432 kts | 143° |
| 2026-04-24 22:44 | 54.49810 | -1.41522 | 25244 ft | 431 kts | 143° |
| 2026-04-24 22:44 | 54.47398 | -1.38465 | 25247 ft | 431 kts | 143° |
| 2026-04-24 22:45 | 54.44985 | -1.35415 | 25248 ft | 430 kts | 143° |
| 2026-04-24 22:45 | 54.42574 | -1.32367 | 25250 ft | 430 kts | 143° |
| 2026-04-24 22:45 | 54.40167 | -1.29329 | 25251 ft | 430 kts | 143° |
| 2026-04-24 22:45 | 54.37758 | -1.26294 | 25253 ft | 429 kts | 143° |
| 2026-04-24 22:46 | 54.35356 | -1.23271 | 25273 ft | 428 kts | 144° |
| 2026-04-24 22:46 | 54.32957 | -1.20253 | 25274 ft | 428 kts | 144° |
| 2026-04-24 22:46 | 54.30560 | -1.17243 | 25272 ft | 427 kts | 144° |
| 2026-04-24 22:46 | 54.28161 | -1.14239 | 25275 ft | 427 kts | 144° |
| 2026-04-24 22:47 | 54.25763 | -1.11236 | 25275 ft | 427 kts | 144° |
| 2026-04-24 22:47 | 54.23370 | -1.08242 | 25276 ft | 426 kts | 144° |
| 2026-04-24 22:47 | 54.20973 | -1.05254 | 25270 ft | 426 kts | 144° |
| 2026-04-24 22:47 | 54.18582 | -1.02279 | 25277 ft | 425 kts | 144° |
| 2026-04-24 22:48 | 54.16197 | -0.99312 | 25274 ft | 425 kts | 144° |
| 2026-04-24 22:48 | 54.13807 | -0.96342 | 25274 ft | 424 kts | 144° |
| 2026-04-24 22:48 | 54.11422 | -0.93378 | 25271 ft | 424 kts | 145° |
| 2026-04-24 22:48 | 54.09043 | -0.90427 | 25275 ft | 423 kts | 145° |
| 2026-04-24 22:49 | 54.06664 | -0.87483 | 25274 ft | 423 kts | 145° |
| 2026-04-24 22:49 | 54.04288 | -0.84550 | 25275 ft | 422 kts | 145° |
| 2026-04-24 22:49 | 54.01900 | -0.81622 | 25275 ft | 422 kts | 146° |
| 2026-04-24 22:49 | 53.99499 | -0.78753 | 25276 ft | 421 kts | 146° |
| 2026-04-24 22:50 | 53.97088 | -0.75933 | 25274 ft | 421 kts | 147° |
| 2026-04-24 22:50 | 53.94670 | -0.73137 | 25277 ft | 421 kts | 147° |
| 2026-04-24 22:50 | 53.92250 | -0.70343 | 25275 ft | 420 kts | 147° |
| 2026-04-24 22:50 | 53.89839 | -0.67547 | 25278 ft | 420 kts | 147° |
| 2026-04-24 22:51 | 53.87433 | -0.64743 | 25276 ft | 419 kts | 147° |
| 2026-04-24 22:51 | 53.85029 | -0.61939 | 25276 ft | 419 kts | 147° |
| 2026-04-24 22:51 | 53.82630 | -0.59141 | 25271 ft | 419 kts | 147° |
| 2026-04-24 22:51 | 53.80231 | -0.56348 | 25277 ft | 418 kts | 147° |
| 2026-04-24 22:52 | 53.77833 | -0.53560 | 25278 ft | 418 kts | 147° |
| 2026-04-24 22:52 | 53.75436 | -0.50777 | 25277 ft | 418 kts | 147° |
| 2026-04-24 22:52 | 53.73039 | -0.48001 | 25274 ft | 418 kts | 147° |
| 2026-04-24 22:52 | 53.70642 | -0.45230 | 25277 ft | 418 kts | 147° |
| 2026-04-24 22:53 | 53.68244 | -0.42461 | 25275 ft | 417 kts | 147° |
| 2026-04-24 22:53 | 53.65844 | -0.39699 | 25271 ft | 417 kts | 147° |
| 2026-04-24 22:53 | 53.63449 | -0.36947 | 25271 ft | 417 kts | 147° |
| 2026-04-24 22:53 | 53.61059 | -0.34198 | 25275 ft | 417 kts | 147° |
| 2026-04-24 22:54 | 53.58738 | -0.31348 | 25275 ft | 418 kts | 141° |
| 2026-04-24 22:54 | 53.56666 | -0.27911 | 25275 ft | 420 kts | 133° |
| 2026-04-24 22:54 | 53.54872 | -0.24013 | 25271 ft | 421 kts | 129° |
| 2026-04-24 22:54 | 53.53112 | -0.20077 | 25275 ft | 421 kts | 129° |
| 2026-04-24 22:55 | 53.51352 | -0.16154 | 25274 ft | 421 kts | 129° |
| 2026-04-24 22:55 | 53.49585 | -0.12229 | 25277 ft | 421 kts | 129° |
| 2026-04-24 22:55 | 53.47817 | -0.08309 | 25272 ft | 421 kts | 129° |
| 2026-04-24 22:55 | 53.46052 | -0.04400 | 25279 ft | 420 kts | 129° |
| 2026-04-24 22:56 | 53.44286 | -0.00495 | 25280 ft | 420 kts | 129° |
| 2026-04-24 22:56 | 53.42519 | 0.03408 | 25282 ft | 420 kts | 129° |
| 2026-04-24 22:56 | 53.40756 | 0.07303 | 25281 ft | 420 kts | 129° |
| 2026-04-24 22:56 | 53.38989 | 0.11200 | 25283 ft | 419 kts | 129° |
| 2026-04-24 22:57 | 53.37224 | 0.15083 | 25284 ft | 419 kts | 129° |
| 2026-04-24 22:57 | 53.35457 | 0.18963 | 25285 ft | 419 kts | 129° |
| 2026-04-24 22:57 | 53.33690 | 0.22837 | 25279 ft | 419 kts | 129° |
| 2026-04-24 22:57 | 53.31943 | 0.26656 | 25284 ft | 418 kts | 129° |
| 2026-04-24 22:58 | 53.30174 | 0.30515 | 25285 ft | 418 kts | 129° |
| 2026-04-24 22:58 | 53.28405 | 0.34370 | 25286 ft | 418 kts | 129° |
| 2026-04-24 22:58 | 53.26636 | 0.38224 | 25281 ft | 418 kts | 129° |
| 2026-04-24 22:58 | 53.24872 | 0.42067 | 25284 ft | 417 kts | 129° |
| 2026-04-24 22:59 | 53.23100 | 0.45917 | 25283 ft | 417 kts | 129° |
| 2026-04-24 22:59 | 53.21330 | 0.49752 | 25284 ft | 417 kts | 129° |
| 2026-04-24 22:59 | 53.17791 | 0.57407 | 25289 ft | 417 kts | 129° |
| 2026-04-24 23:00 | 53.16021 | 0.61227 | 25283 ft | 416 kts | 129° |
| 2026-04-24 23:00 | 53.14251 | 0.65049 | 25286 ft | 416 kts | 129° |
| 2026-04-24 23:00 | 53.12481 | 0.68866 | 25282 ft | 416 kts | 129° |
| 2026-04-24 23:00 | 53.10710 | 0.72675 | 25283 ft | 416 kts | 130° |
| 2026-04-24 23:01 | 53.08961 | 0.76428 | 25286 ft | 416 kts | 130° |
| 2026-04-24 23:01 | 53.07188 | 0.80228 | 25284 ft | 416 kts | 130° |
| 2026-04-24 23:01 | 53.05416 | 0.84022 | 25282 ft | 416 kts | 130° |
| 2026-04-24 23:01 | 53.03639 | 0.87815 | 25289 ft | 415 kts | 130° |
| 2026-04-24 23:02 | 53.01864 | 0.91595 | 25284 ft | 415 kts | 130° |
| 2026-04-24 23:02 | 53.00094 | 0.95397 | 25380 ft | 418 kts | 127° |
| 2026-04-24 23:02 | 52.98586 | 0.99544 | 25764 ft | 422 kts | 118° |
| 2026-04-24 23:02 | 52.97502 | 1.04090 | 26140 ft | 427 kts | 109° |
| 2026-04-24 23:03 | 52.96849 | 1.08925 | 26496 ft | 431 kts | 103° |
| 2026-04-24 23:03 | 52.96294 | 1.13821 | 26849 ft | 433 kts | 103° |
| 2026-04-24 23:03 | 52.95729 | 1.18746 | 27191 ft | 435 kts | 104° |
| 2026-04-24 23:03 | 52.95157 | 1.23685 | 27531 ft | 437 kts | 104° |
| 2026-04-24 23:04 | 52.94575 | 1.28649 | 27852 ft | 439 kts | 104° |
| 2026-04-24 23:04 | 52.93987 | 1.33632 | 28179 ft | 441 kts | 104° |
| 2026-04-24 23:04 | 52.93398 | 1.38639 | 28479 ft | 444 kts | 105° |
| 2026-04-24 23:04 | 52.92807 | 1.43666 | 28775 ft | 445 kts | 104° |
| 2026-04-24 23:05 | 52.92210 | 1.48715 | 29073 ft | 447 kts | 104° |
| 2026-04-24 23:05 | 52.91608 | 1.53782 | 29365 ft | 449 kts | 105° |
| 2026-04-24 23:05 | 52.91000 | 1.58868 | 29656 ft | 451 kts | 105° |
| 2026-04-24 23:05 | 52.90387 | 1.63987 | 29918 ft | 454 kts | 105° |
| 2026-04-24 23:06 | 52.89774 | 1.69109 | 30294 ft | 453 kts | 105° |
| 2026-04-24 23:06 | 52.89157 | 1.74226 | 30657 ft | 452 kts | 105° |
| 2026-04-24 23:06 | 52.88537 | 1.79319 | 31001 ft | 451 kts | 105° |
| 2026-04-24 23:06 | 52.87916 | 1.84401 | 31354 ft | 450 kts | 105° |
| 2026-04-24 23:07 | 52.87295 | 1.89479 | 31705 ft | 449 kts | 105° |
| 2026-04-24 23:07 | 52.86675 | 1.94539 | 32044 ft | 448 kts | 105° |
| 2026-04-24 23:07 | 52.86265 | 1.97887 | 32283 ft | 447 kts | 105° |